createdAt,value
2023-03-10T00:04:55.238Z,25.88
2023-03-10T00:09:56.916Z,26.33
2023-03-10T00:14:58.341Z,25.88
2023-03-10T00:19:59.807Z,24.73
2023-03-10T00:25:01.244Z,25.65
2023-03-10T00:30:03.197Z,25.35
2023-03-10T00:35:06.248Z,25.67
2023-03-10T00:40:10.998Z,25.13
2023-03-10T00:45:12.528Z,27.13
2023-03-10T00:50:13.983Z,25.98
2023-03-10T00:55:15.452Z,26.42
2023-03-10T01:00:18.088Z,25.52
2023-03-10T01:05:20.064Z,24.77
2023-03-10T01:10:21.669Z,25.50
2023-03-10T01:15:23.199Z,25.17
2023-03-10T01:20:24.632Z,25.88
2023-03-10T01:25:26.759Z,25.58
2023-03-10T01:30:28.205Z,25.60
2023-03-10T01:35:31.043Z,25.38
2023-03-10T01:40:32.747Z,25.13
2023-03-10T01:45:34.121Z,26.83
2023-03-10T01:50:35.865Z,25.88
2023-03-10T01:55:42.235Z,26.23
2023-03-10T02:00:44.271Z,26.92
2023-03-10T02:05:50.153Z,24.00
2023-03-10T02:10:51.633Z,23.55
2023-03-10T02:15:53.249Z,21.73
2023-03-10T02:21:11.914Z,19.95
2023-03-10T02:26:24.100Z,16.57
2023-03-10T02:31:27.044Z,13.13
2023-03-10T02:36:28.576Z,10.88
2023-03-10T02:41:36.119Z,10.40
2023-03-10T02:46:37.979Z,11.75
2023-03-10T02:51:42.334Z,5.65
2023-03-10T02:56:43.986Z,4.53
2023-03-10T03:01:45.427Z,4.22
2023-03-10T03:06:47.793Z,3.28
2023-03-10T03:11:49.206Z,3.47
2023-03-10T03:16:50.682Z,3.78
2023-03-10T03:21:52.162Z,2.88
2023-03-10T03:26:53.611Z,3.15
2023-03-10T03:31:55.126Z,3.47
2023-03-10T03:36:56.681Z,2.78
2023-03-10T03:41:58.203Z,2.88
2023-03-10T03:46:59.642Z,3.00
2023-03-10T03:52:01.318Z,3.13
2023-03-10T03:57:02.787Z,2.65
2023-03-10T04:02:04.252Z,2.30
2023-03-10T04:07:05.705Z,2.17
2023-03-10T04:12:09.308Z,2.17
2023-03-10T04:17:12.264Z,1.90
2023-03-10T04:22:13.964Z,1.60
2023-03-10T04:27:15.626Z,1.90
2023-03-10T04:32:17.127Z,2.10
2023-03-10T04:37:20.607Z,1.77
2023-03-10T04:42:22.119Z,2.38
2023-03-10T04:47:23.532Z,1.92
2023-03-10T04:52:25.009Z,1.80
2023-03-10T04:57:26.475Z,2.42
2023-03-10T05:02:28.061Z,2.17
2023-03-10T05:07:29.661Z,2.00
2023-03-10T05:12:31.231Z,1.70
2023-03-10T05:17:32.654Z,2.00
2023-03-10T05:22:34.078Z,2.30
2023-03-10T05:27:37.212Z,2.08
2023-03-10T05:32:38.698Z,2.10
2023-03-10T05:37:42.743Z,3.50
2023-03-10T05:42:44.200Z,3.50
2023-03-10T05:47:48.842Z,3.38
2023-03-10T05:52:50.506Z,3.08
2023-03-10T05:57:52.048Z,3.25
2023-03-10T06:02:53.631Z,3.72
2023-03-10T06:07:55.146Z,3.28
2023-03-10T06:12:56.676Z,1.85
2023-03-10T06:17:58.133Z,2.10
2023-03-10T06:22:59.607Z,1.88
2023-03-10T06:28:01.077Z,2.40
2023-03-10T06:33:04.285Z,2.33
2023-03-10T06:38:05.712Z,2.13
2023-03-10T06:43:07.134Z,2.35
2023-03-10T06:48:08.710Z,2.50
2023-03-10T06:53:11.709Z,2.63
2023-03-10T06:58:13.202Z,4.75
2023-03-10T07:03:14.802Z,3.83
2023-03-10T07:08:16.263Z,2.90
2023-03-10T07:13:17.830Z,3.17
2023-03-10T07:18:19.346Z,4.20
2023-03-10T07:23:20.911Z,4.97
2023-03-10T07:28:23.520Z,4.43
2023-03-10T07:33:25.006Z,5.00
2023-03-10T07:38:26.505Z,5.30
2023-03-10T07:43:27.983Z,2.92
2023-03-10T07:48:29.561Z,3.10
2023-03-10T07:53:31.406Z,2.88
2023-03-10T07:58:33.394Z,4.60
2023-03-10T08:03:35.922Z,6.25
2023-03-10T08:08:37.460Z,15.88
2023-03-10T08:13:39.356Z,4.28
2023-03-10T08:18:41.586Z,3.20
2023-03-10T08:23:43.100Z,3.58
2023-03-10T08:28:44.992Z,4.05
2023-03-10T08:33:47.575Z,4.32
2023-03-10T08:38:51.368Z,3.70
2023-03-10T08:43:54.941Z,4.65
2023-03-10T08:48:56.994Z,4.60
2023-03-10T08:53:59.151Z,3.15
2023-03-10T08:59:00.946Z,3.20
2023-03-10T09:04:04.739Z,3.22
2023-03-10T09:09:07.905Z,3.15
2023-03-10T09:14:11.624Z,2.70
2023-03-10T09:19:13.044Z,1.70
2023-03-10T09:24:14.547Z,1.40
2023-03-10T09:29:16.302Z,1.73
2023-03-10T09:34:17.746Z,1.63
2023-03-10T09:39:19.259Z,1.13
2023-03-10T09:44:37.881Z,1.73
2023-03-10T09:49:51.602Z,1.75
2023-03-10T09:55:01.748Z,1.30
2023-03-10T10:00:10.938Z,1.67
2023-03-10T10:10:31.116Z,1.63
2023-03-10T10:15:35.438Z,1.60
2023-03-10T10:21:00.348Z,1.67
2023-03-10T10:26:11.707Z,1.60
2023-03-10T10:31:22.444Z,6.05
2023-03-10T10:36:35.519Z,6.13
2023-03-10T10:41:37.081Z,2.33
2023-03-10T10:46:38.910Z,3.20
2023-03-10T10:51:40.714Z,2.85
2023-03-10T10:56:52.816Z,1.30
2023-03-10T11:01:56.702Z,1.63
2023-03-10T11:07:30.720Z,1.40
2023-03-10T11:12:38.955Z,1.60
2023-03-10T11:17:46.629Z,1.37
2023-03-10T11:23:25.993Z,1.52
2023-03-10T11:28:49.257Z,2.03
2023-03-10T11:34:10.225Z,2.20
2023-03-10T11:39:24.169Z,1.90
2023-03-10T11:44:36.769Z,1.70
2023-03-10T11:49:40.382Z,1.20
2023-03-10T11:54:54.370Z,1.48
2023-03-10T12:00:00.706Z,1.77
2023-03-10T12:05:20.962Z,5.22
2023-03-10T12:10:23.065Z,2.20
2023-03-10T12:15:29.105Z,1.70
2023-03-10T12:20:33.065Z,1.80
2023-03-10T12:25:37.507Z,1.70
2023-03-10T12:30:58.525Z,1.73
2023-03-10T12:36:06.092Z,2.03
2023-03-10T12:41:08.161Z,1.90
2023-03-10T12:46:18.726Z,1.60
2023-03-10T12:51:24.728Z,1.50
2023-03-10T12:56:58.162Z,2.17
2023-03-10T13:02:01.828Z,1.30
2023-03-10T13:07:04.208Z,1.50
2023-03-10T13:12:12.892Z,1.35
2023-03-10T13:17:26.971Z,2.28
2023-03-10T13:22:29.577Z,3.22
2023-03-10T13:27:34.282Z,1.90
2023-03-10T13:32:35.792Z,2.90
2023-03-10T13:37:37.309Z,2.28
2023-03-10T13:42:44.212Z,2.42
2023-03-10T13:47:47.306Z,2.38
2023-03-10T13:52:54.521Z,1.90
2023-03-10T13:57:57.567Z,1.40
2023-03-10T14:02:59.451Z,2.88
2023-03-10T14:08:01.190Z,2.70
2023-03-10T14:13:02.638Z,3.25
2023-03-10T14:18:06.904Z,2.20
2023-03-10T14:23:22.416Z,1.90
2023-03-10T14:28:27.362Z,2.25
2023-03-10T14:33:29.059Z,2.42
2023-03-10T14:38:30.504Z,2.47
2023-03-10T14:43:33.263Z,2.00
2023-03-10T14:48:39.081Z,2.08
2023-03-10T14:53:41.179Z,2.17
2023-03-10T14:58:50.555Z,2.50
2023-03-10T15:03:52.697Z,4.38
2023-03-10T15:08:54.236Z,3.13
2023-03-10T15:13:56.330Z,3.60
2023-03-10T15:18:57.828Z,3.10
2023-03-10T15:23:59.319Z,3.70
2023-03-10T15:29:00.738Z,5.95
2023-03-10T15:34:02.184Z,3.80
2023-03-10T15:39:05.209Z,3.70
2023-03-10T15:44:07.218Z,4.00
2023-03-10T15:49:08.653Z,2.42
2023-03-10T15:54:12.455Z,2.70
2023-03-10T15:59:13.935Z,1.90
2023-03-10T16:04:15.368Z,2.30
2023-03-10T16:09:16.814Z,3.17
2023-03-10T16:14:18.264Z,4.05
2023-03-10T16:19:20.072Z,4.28
2023-03-10T16:24:22.557Z,5.30
2023-03-10T16:29:24.108Z,5.30
2023-03-10T16:34:26.020Z,5.15
2023-03-10T16:39:30.933Z,5.18
2023-03-10T16:44:32.355Z,6.15
2023-03-10T16:49:34.282Z,6.82
2023-03-10T16:54:35.771Z,6.15
2023-03-10T16:59:37.214Z,10.02
2023-03-10T17:04:38.683Z,35.30
2023-03-10T17:09:40.110Z,21.63
2023-03-10T17:14:43.228Z,21.05
2023-03-10T17:19:44.655Z,18.02
2023-03-10T17:24:46.161Z,16.52
2023-03-10T17:29:48.469Z,8.25
2023-03-10T17:34:52.096Z,3.20
2023-03-10T17:39:54.523Z,2.90
2023-03-10T17:44:56.003Z,2.78
2023-03-10T17:50:00.024Z,3.47
2023-03-10T17:55:01.586Z,3.60
2023-03-10T18:00:04.047Z,4.45
2023-03-10T18:05:06.086Z,4.15
2023-03-10T18:10:08.587Z,3.88
2023-03-10T18:15:10.632Z,4.65
2023-03-10T18:20:14.552Z,3.85
2023-03-10T18:25:16.072Z,3.40
2023-03-10T18:30:17.814Z,2.60
2023-03-10T18:35:19.258Z,2.60
2023-03-10T18:40:20.797Z,3.30
2023-03-10T18:45:22.334Z,2.38
2023-03-10T18:50:23.811Z,2.30
2023-03-10T18:55:25.556Z,2.88
2023-03-10T19:00:27.609Z,3.42
2023-03-10T19:05:29.099Z,2.90
2023-03-10T19:10:30.646Z,2.67
2023-03-10T19:15:32.092Z,4.03
2023-03-10T19:20:33.512Z,3.67
2023-03-10T19:25:34.972Z,4.18
2023-03-10T19:30:36.664Z,3.67
2023-03-10T19:35:38.751Z,3.45
2023-03-10T19:40:40.387Z,3.28
2023-03-10T19:45:41.832Z,3.75
2023-03-10T19:50:52.994Z,2.90
2023-03-10T19:55:56.494Z,4.18
2023-03-10T20:00:58.808Z,3.38
2023-03-10T20:06:01.400Z,4.10
2023-03-10T20:11:03.389Z,4.40
2023-03-10T20:16:05.576Z,3.90
2023-03-10T20:21:07.452Z,3.80
2023-03-10T20:26:10.218Z,3.90
2023-03-10T20:31:16.854Z,3.17
2023-03-10T20:36:18.422Z,3.80
2023-03-10T20:41:20.874Z,4.32
2023-03-10T20:46:22.899Z,4.45
2023-03-10T20:51:24.401Z,4.40
2023-03-10T20:56:26.002Z,7.13
2023-03-10T21:01:28.949Z,3.92
2023-03-10T21:06:30.418Z,3.85
2023-03-10T21:11:33.486Z,2.88
2023-03-10T21:16:42.823Z,3.00
2023-03-10T21:21:44.365Z,2.80
2023-03-10T21:26:45.969Z,2.85
2023-03-10T21:31:47.532Z,2.55
2023-03-10T21:36:48.969Z,2.15
2023-03-10T21:41:50.639Z,2.60
2023-03-10T21:46:52.051Z,2.30
2023-03-10T21:51:53.494Z,2.08
2023-03-10T21:56:54.954Z,2.05
2023-03-10T22:01:56.457Z,2.20
2023-03-10T22:06:57.997Z,2.35
2023-03-10T22:11:59.416Z,2.25
2023-03-10T22:17:01.068Z,2.30
2023-03-10T22:22:02.748Z,2.35
2023-03-10T22:27:04.187Z,2.50
2023-03-10T22:32:06.397Z,2.58
2023-03-10T22:37:07.884Z,1.90
2023-03-10T22:42:10.588Z,2.40
2023-03-10T22:47:12.016Z,2.25
2023-03-10T22:52:13.466Z,2.03
2023-03-10T22:57:15.241Z,1.85
2023-03-10T23:02:16.796Z,1.48
2023-03-10T23:07:18.306Z,1.48
2023-03-10T23:12:20.343Z,1.52
2023-03-10T23:17:21.847Z,1.42
2023-03-10T23:22:23.741Z,1.42
2023-03-10T23:27:25.218Z,1.40
2023-03-10T23:32:26.660Z,1.73
2023-03-10T23:37:28.116Z,1.10
2023-03-10T23:42:29.549Z,1.50
2023-03-10T23:47:31.603Z,1.17
2023-03-10T23:52:33.082Z,1.23
2023-03-10T23:57:34.519Z,1.40
